Time;durP1;ratioP1;P1;durP2;ratioP2;P2;SDS_P1;SDS_P2;PMS_P1;PMS_P2;Temp;Humidity;BMP_temperature;BMP_pressure;BME280_temperature;BME280_humidity;BME280_pressure;Samples;Min_cycle;Max_cycle;Signal;HPM_P1;HPM_P2
2020/12/22 00:00:44;;;;;;;5.28;0.40;;;;;;;15.19;75.98;99433.88;4985936;28;20113;-85
2020/12/22 00:03:10;;;;;;;3.40;0.38;;;;;;;15.37;75.23;99425.88;4993022;28;20088;-84
2020/12/22 00:05:35;;;;;;;2.42;0.60;;;;;;;15.13;76.05;99433.69;4993580;28;20058;-85
2020/12/22 00:08:00;;;;;;;3.33;0.47;;;;;;;15.29;75.60;99430.31;4995818;28;20022;-85
2020/12/22 00:10:26;;;;;;;5.00;0.40;;;;;;;15.47;74.74;99437.16;4993808;28;20081;-85
2020/12/22 00:12:51;;;;;;;2.20;0.50;;;;;;;15.50;74.09;99438.66;4991950;28;20081;-85
2020/12/22 00:15:17;;;;;;;1.55;0.28;;;;;;;15.34;75.42;99431.47;4993475;28;20381;-85
2020/12/22 00:17:44;;;;;;;1.42;0.40;;;;;;;14.54;77.76;99430.81;4995360;28;20026;-85
2020/12/22 00:20:14;;;;;;;3.05;0.45;;;;;;;15.18;75.81;99441.97;4995043;28;21023;-85
2020/12/22 00:22:40;;;;;;;2.05;0.43;;;;;;;15.04;76.68;99444.22;4994581;28;20038;-85
2020/12/22 00:25:05;;;;;;;1.25;0.25;;;;;;;15.35;75.02;99443.72;4992757;28;20026;-85
2020/12/22 00:27:33;;;;;;;2.92;0.35;;;;;;;14.93;76.46;99441.84;4995321;28;20087;-85
2020/12/22 00:30:03;;;;;;;2.03;0.40;;;;;;;14.87;76.59;99448.59;4995757;28;20026;-85
2020/12/22 00:32:29;;;;;;;3.50;0.40;;;;;;;15.06;75.93;99447.53;4992948;28;20073;-85
2020/12/22 00:34:54;;;;;;;1.20;0.10;;;;;;;14.75;76.69;99451.63;4995150;28;20030;-85
2020/12/22 00:37:19;;;;;;;1.80;0.20;;;;;;;15.21;75.05;99471.59;4993665;28;20093;-85
2020/12/22 00:39:45;;;;;;;0.90;0.22;;;;;;;14.36;77.05;99465.16;4994617;28;20470;-85
2020/12/22 00:42:10;;;;;;;0.70;0.10;;;;;;;14.96;75.90;99465.31;4994381;28;20160;-85
2020/12/22 00:44:35;;;;;;;4.28;0.20;;;;;;;15.11;75.50;99468.22;4994142;28;20484;-85
2020/12/22 00:47:01;;;;;;;1.17;0.20;;;;;;;15.08;75.52;99474.63;4993924;28;20439;-85
2020/12/22 00:49:26;;;;;;;3.55;0.98;;;;;;;14.67;76.72;99469.09;4995220;28;20029;-86
2020/12/22 00:51:51;;;;;;;2.40;0.22;;;;;;;14.79;75.75;99482.03;4995146;28;20037;-85
2020/12/22 00:54:17;;;;;;;2.40;0.10;;;;;;;14.94;75.42;99472.56;4994942;28;20030;-85
2020/12/22 00:56:47;;;;;;;0.75;0.10;;;;;;;14.73;76.52;99477.38;4994487;28;20038;-86
2020/12/22 00:59:12;;;;;;;1.85;0.30;;;;;;;14.83;75.67;99478.09;4991455;28;20058;-85
2020/12/22 01:01:37;;;;;;;1.13;0.20;;;;;;;14.91;75.49;99485.25;4993094;28;20428;-85
2020/12/22 01:04:03;;;;;;;1.25;0.10;;;;;;;15.03;75.12;99474.28;4994876;28;20500;-85
2020/12/22 01:06:36;;;;;;;1.67;0.47;;;;;;;15.00;74.99;99482.50;4993817;28;20037;-86
2020/12/22 01:09:02;;;;;;;2.25;0.30;;;;;;;14.82;75.48;99489.66;4994920;28;20034;-85
2020/12/22 01:11:32;;;;;;;0.43;0.10;;;;;;;14.86;75.18;99498.94;4993313;28;20156;-85
2020/12/22 01:13:58;;;;;;;1.77;0.22;;;;;;;14.74;74.91;99492.25;4993221;28;20089;-85
2020/12/22 01:16:23;;;;;;;1.40;0.30;;;;;;;14.62;75.76;99516.25;4993469;28;20105;-85
2020/12/22 01:18:49;;;;;;;1.77;0.55;;;;;;;14.47;76.29;99496.59;4994590;28;20027;-86
2020/12/22 01:21:21;;;;;;;1.75;0.35;;;;;;;14.74;74.97;99505.47;4992319;28;20026;-86
2020/12/22 01:23:47;;;;;;;1.20;0.20;;;;;;;14.75;74.98;99501.81;4994669;28;20105;-86
2020/12/22 01:26:26;;;;;;;1.65;0.17;;;;;;;14.58;75.00;99509.63;4993795;28;20153;-85
2020/12/22 01:28:52;;;;;;;3.15;0.40;;;;;;;14.85;74.55;99502.59;4993275;28;20019;-86
2020/12/22 01:31:26;;;;;;;2.67;0.50;;;;;;;14.51;76.11;99505.88;4993377;28;20405;-86
2020/12/22 01:33:52;;;;;;;1.10;0.30;;;;;;;14.77;74.87;99521.84;4992487;28;20473;-86
2020/12/22 01:36:18;;;;;;;1.27;0.43;;;;;;;14.95;74.51;99523.59;4993339;28;20030;-85
2020/12/22 01:38:44;;;;;;;1.45;0.20;;;;;;;14.64;75.23;99508.19;4994300;28;20034;-86
2020/12/22 01:41:10;;;;;;;6.03;0.40;;;;;;;14.86;74.97;99528.84;4992408;28;20058;-86
2020/12/22 01:43:36;;;;;;;3.25;0.30;;;;;;;14.78;75.19;99541.16;4993892;28;20436;-86
2020/12/22 01:46:01;;;;;;;2.45;0.50;;;;;;;14.63;74.98;99536.44;4992919;28;20034;-86
2020/12/22 01:48:28;;;;;;;2.47;0.30;;;;;;;14.60;75.38;99531.44;4992604;28;20037;-85
2020/12/22 01:50:53;;;;;;;2.97;0.30;;;;;;;14.71;74.46;99548.03;4991757;28;20030;-86
2020/12/22 01:53:19;;;;;;;2.10;0.30;;;;;;;14.59;74.84;99558.84;4994087;28;20022;-85
2020/12/22 01:55:44;;;;;;;7.40;0.52;;;;;;;14.81;74.45;99538.19;5020202;23;20046;-86
2020/12/22 01:58:10;;;;;;;1.20;0.20;;;;;;;14.82;74.07;99545.16;5033143;28;20364;-86
2020/12/22 02:00:36;;;;;;;1.08;0.25;;;;;;;14.82;74.45;99553.09;5030763;28;20442;-86
2020/12/22 02:03:05;;;;;;;3.35;0.50;;;;;;;14.27;75.85;99569.88;5029864;28;20479;-86
2020/12/22 02:05:36;;;;;;;2.75;0.73;;;;;;;14.24;76.18;99573.63;5040672;28;20061;-86
2020/12/22 02:08:01;;;;;;;2.72;0.73;;;;;;;14.58;75.79;99580.94;5033382;28;20420;-86
2020/12/22 02:10:27;;;;;;;1.10;0.30;;;;;;;14.67;75.53;99587.97;5032011;28;20112;-86
2020/12/22 02:12:52;;;;;;;5.68;0.57;;;;;;;14.68;75.70;99618.69;5048397;28;20035;-86
2020/12/22 02:15:18;;;;;;;4.35;0.85;;;;;;;14.28;76.77;99622.53;5031591;28;20534;-86
2020/12/22 02:17:45;;;;;;;4.03;0.63;;;;;;;14.18;76.78;99636.75;5047099;28;20472;-86
2020/12/22 02:20:11;;;;;;;4.80;1.10;;;;;;;14.02;76.50;99650.56;5032701;28;20112;-86
2020/12/22 02:22:36;;;;;;;5.25;0.60;;;;;;;13.77;76.36;99652.88;5030720;28;20464;-87
2020/12/22 02:25:03;;;;;;;11.10;1.90;;;;;;;13.66;76.32;99653.03;5031913;28;20106;-87
2020/12/22 02:27:28;;;;;;;12.80;1.10;;;;;;;13.48;76.56;99666.97;5030918;28;20040;-86
2020/12/22 02:29:53;;;;;;;6.05;0.80;;;;;;;13.55;76.25;99661.16;5031673;28;20034;-86
2020/12/22 02:32:19;;;;;;;4.78;0.73;;;;;;;13.39;76.08;99662.56;5031662;28;20071;-86
2020/12/22 02:34:44;;;;;;;3.92;0.82;;;;;;;13.66;75.91;99666.25;5047665;28;20522;-86
2020/12/22 02:37:09;;;;;;;6.43;0.95;;;;;;;13.58;75.69;99669.59;5031661;28;20049;-86
2020/12/22 02:39:35;;;;;;;6.13;0.90;;;;;;;13.43;75.24;99674.47;5031733;28;20449;-86
2020/12/22 02:42:00;;;;;;;8.10;1.10;;;;;;;13.22;75.57;99693.03;5032317;28;20563;-86
2020/12/22 02:44:27;;;;;;;6.75;1.05;;;;;;;13.35;74.94;99679.63;5031522;28;20033;-86
2020/12/22 02:46:52;;;;;;;9.40;0.80;;;;;;;13.43;75.23;99676.28;5031005;28;20017;-86
2020/12/22 02:49:17;;;;;;;7.47;1.75;;;;;;;13.07;75.73;99684.72;5032369;28;20570;-86
2020/12/22 02:51:43;;;;;;;6.60;1.23;;;;;;;13.23;75.00;99683.31;5031622;28;20426;-86
2020/12/22 02:54:08;;;;;;;4.20;0.70;;;;;;;13.36;74.53;99678.63;5029750;28;20423;-86
2020/12/22 02:56:33;;;;;;;3.85;0.88;;;;;;;13.16;75.75;99687.50;5030465;28;20475;-86
2020/12/22 02:58:59;;;;;;;6.20;0.95;;;;;;;13.32;75.17;99681.69;5030455;28;20033;-86
2020/12/22 03:01:24;;;;;;;7.78;1.35;;;;;;;13.47;74.26;99691.69;5028462;28;20025;-86
2020/12/22 03:03:50;;;;;;;7.13;0.93;;;;;;;13.32;75.31;99682.53;5031234;28;20395;-86
2020/12/22 03:06:15;;;;;;;7.82;1.00;;;;;;;13.27;75.42;99700.56;5029729;28;20017;-87
2020/12/22 03:08:40;;;;;;;5.57;1.00;;;;;;;13.27;75.46;99704.00;5031857;28;20032;-86
2020/12/22 03:11:06;;;;;;;8.73;1.55;;;;;;;13.32;74.62;99708.91;5029832;28;20116;-86
2020/12/22 03:13:32;;;;;;;6.03;0.85;;;;;;;13.42;74.17;99693.88;5030839;28;20056;-86
2020/12/22 03:15:57;;;;;;;6.45;0.95;;;;;;;13.19;75.16;99703.03;5028418;28;20028;-86
2020/12/22 03:18:22;;;;;;;5.10;0.80;;;;;;;13.13;74.80;99704.44;5030515;28;20025;-86
2020/12/22 03:20:48;;;;;;;8.85;2.30;;;;;;;13.16;74.25;99700.69;5029971;28;20450;-86
2020/12/22 03:23:13;;;;;;;11.20;1.58;;;;;;;13.19;74.58;99711.78;5028533;28;20022;-86
2020/12/22 03:25:39;;;;;;;6.55;1.27;;;;;;;13.14;74.68;99706.09;5031824;28;20041;-86
2020/12/22 03:28:04;;;;;;;10.25;1.58;;;;;;;12.87;75.88;99704.09;5030970;28;20030;-86
2020/12/22 03:30:29;;;;;;;5.85;1.17;;;;;;;13.14;74.81;99721.91;5030558;28;20024;-86
2020/12/22 03:32:55;;;;;;;9.45;1.25;;;;;;;13.23;74.33;99715.81;5030178;28;20021;-86
2020/12/22 03:35:20;;;;;;;10.63;1.20;;;;;;;13.18;73.92;99710.09;5029101;28;20396;-86
2020/12/22 03:37:46;;;;;;;5.43;1.15;;;;;;;13.27;73.93;99725.09;5046288;28;20083;-86
2020/12/22 03:40:15;;;;;;;5.85;1.10;;;;;;;13.03;74.50;99722.88;5030340;28;20128;-86
2020/12/22 03:42:41;;;;;;;7.10;1.15;;;;;;;13.16;74.20;99734.94;5045386;28;20022;-86
2020/12/22 03:45:07;;;;;;;8.75;1.45;;;;;;;12.92;74.55;99737.97;5030347;28;20040;-86
2020/12/22 03:47:33;;;;;;;8.57;1.40;;;;;;;13.15;75.31;99749.94;5030564;28;20032;-86
2020/12/22 03:49:59;;;;;;;9.52;1.90;;;;;;;13.30;73.49;99758.28;5031469;28;20037;-86
2020/12/22 03:52:24;;;;;;;11.07;2.28;;;;;;;13.49;73.44;99762.75;5045666;28;20124;-86
2020/12/22 03:54:49;;;;;;;6.75;1.80;;;;;;;13.20;74.61;99760.88;5044751;28;20053;-86
2020/12/22 03:57:16;;;;;;;9.02;1.50;;;;;;;13.18;74.42;99769.91;5029494;28;20071;-86
2020/12/22 03:59:42;;;;;;;7.70;1.70;;;;;;;13.06;74.73;99769.19;5031664;28;20521;-86
2020/12/22 04:02:08;;;;;;;8.60;1.38;;;;;;;13.20;74.05;99766.16;5026195;28;20080;-86
2020/12/22 04:04:33;;;;;;;11.48;1.90;;;;;;;13.19;73.75;99771.56;5030527;28;20029;-86
2020/12/22 04:06:58;;;;;;;11.75;2.00;;;;;;;13.22;73.77;99768.66;5030426;28;20252;-87
2020/12/22 04:09:24;;;;;;;11.38;2.40;;;;;;;12.94;74.86;99781.66;5045599;28;20021;-86
2020/12/22 04:11:50;;;;;;;10.45;2.30;;;;;;;12.92;75.09;99788.03;5028557;28;20029;-86
2020/12/22 04:14:17;;;;;;;8.82;1.90;;;;;;;12.85;75.30;99795.63;5029778;28;20476;-86
2020/12/22 04:16:42;;;;;;;6.10;1.83;;;;;;;12.78;75.13;99794.50;5029055;28;20058;-88
2020/12/22 04:19:08;;;;;;;10.25;1.70;;;;;;;12.72;75.76;99805.53;5029144;28;20022;-86
2020/12/22 04:21:35;;;;;;;6.60;2.03;;;;;;;12.66;75.40;99813.03;5029614;28;20041;-86
2020/12/22 04:24:01;;;;;;;16.90;3.03;;;;;;;12.26;76.76;99813.81;5029715;28;20120;-86
2020/12/22 04:26:27;;;;;;;8.85;2.15;;;;;;;12.65;75.40;99816.63;5030016;28;20048;-86
2020/12/22 04:28:53;;;;;;;9.88;2.15;;;;;;;12.76;74.64;99825.41;5031210;28;20108;-86
2020/12/22 04:31:21;;;;;;;6.22;1.95;;;;;;;12.86;74.34;99824.47;5030088;28;20101;-86
2020/12/22 04:33:53;;;;;;;9.43;2.05;;;;;;;12.83;73.95;99824.72;5028946;28;20031;-86
2020/12/22 04:36:19;;;;;;;10.30;1.95;;;;;;;12.67;74.87;99841.03;5044157;28;20057;-86
2020/12/22 04:38:45;;;;;;;7.05;2.30;;;;;;;12.56;75.69;99843.75;5031100;28;20060;-86
2020/12/22 04:41:14;;;;;;;10.30;2.33;;;;;;;12.64;75.58;99846.56;5029688;28;20064;-86
2020/12/22 04:43:41;;;;;;;4.95;1.50;;;;;;;12.79;74.50;99854.13;5026433;28;20125;-86
2020/12/22 04:46:07;;;;;;;7.72;1.40;;;;;;;12.97;74.66;99852.50;5014355;28;20096;-86
2020/12/22 04:48:37;;;;;;;7.18;2.03;;;;;;;12.94;74.25;99847.53;5031830;28;20025;-86
2020/12/22 04:51:08;;;;;;;4.60;1.90;;;;;;;12.76;74.90;99863.13;5033699;28;20503;-86
2020/12/22 04:53:34;;;;;;;4.88;1.02;;;;;;;12.96;74.94;99866.66;5034480;28;20112;-86
2020/12/22 04:56:07;;;;;;;3.88;1.20;;;;;;;13.06;74.42;99866.72;5032600;28;20117;-86
2020/12/22 04:58:34;;;;;;;5.32;1.70;;;;;;;12.65;75.00;99863.19;5029803;28;20033;-86
2020/12/22 05:01:00;;;;;;;9.30;2.80;;;;;;;12.90;74.59;99867.19;5018107;28;20033;-86
2020/12/22 05:03:25;;;;;;;10.38;1.50;;;;;;;13.01;74.39;99864.47;5031449;28;20037;-86
2020/12/22 05:05:52;;;;;;;5.95;1.75;;;;;;;13.04;73.33;99874.75;5033151;28;20022;-86
2020/12/22 05:08:18;;;;;;;10.55;2.47;;;;;;;12.77;74.45;99874.47;5034348;28;20037;-86
2020/12/22 05:10:44;;;;;;;7.75;2.28;;;;;;;13.05;73.78;99873.78;5033393;28;20029;-86
2020/12/22 05:13:11;;;;;;;11.35;4.00;;;;;;;12.94;74.57;99880.97;5033903;28;20021;-86
2020/12/22 05:15:41;;;;;;;6.63;4.07;;;;;;;12.97;74.42;99884.13;5031331;28;20036;-86
2020/12/22 05:18:07;;;;;;;13.68;4.20;;;;;;;12.68;74.57;99890.13;5048551;28;20029;-86
2020/12/22 05:20:33;;;;;;;7.95;4.13;;;;;;;13.03;73.74;99894.16;5032818;28;20092;-86
2020/12/22 05:22:58;;;;;;;6.95;3.58;;;;;;;13.08;73.91;99891.13;5031640;28;20479;-86
2020/12/22 05:25:27;;;;;;;6.35;4.80;;;;;;;12.95;73.84;99890.50;5033947;28;20048;-86
2020/12/22 05:27:55;;;;;;;10.80;4.88;;;;;;;12.78;75.16;99899.88;5033341;28;20068;-89
2020/12/22 05:30:21;;;;;;;8.10;4.57;;;;;;;12.86;75.29;99902.69;5033914;28;20022;-86
2020/12/22 05:32:51;;;;;;;7.32;4.90;;;;;;;13.07;74.16;99906.13;5030530;28;20079;-86
2020/12/22 05:35:19;;;;;;;10.93;5.00;;;;;;;13.08;74.76;99902.50;5016998;28;20064;-86
2020/12/22 05:37:47;;;;;;;13.65;4.90;;;;;;;13.10;73.76;99907.66;5032392;28;20045;-87
2020/12/22 05:40:15;;;;;;;11.20;5.13;;;;;;;13.11;73.78;99909.28;5031519;28;20029;-86
2020/12/22 05:42:42;;;;;;;14.75;6.40;;;;;;;12.97;74.29;99907.84;5031513;28;20076;-87
2020/12/22 05:45:08;;;;;;;10.02;4.82;;;;;;;13.02;74.38;99907.47;5032383;28;20432;-86
2020/12/22 05:47:34;;;;;;;10.18;4.78;;;;;;;12.95;73.69;99915.06;5032348;28;20021;-86
2020/12/22 05:50:00;;;;;;;10.38;4.65;;;;;;;12.89;73.70;99915.59;5032756;28;20076;-86
2020/12/22 05:52:27;;;;;;;8.15;4.30;;;;;;;12.78;73.20;99908.59;5047809;28;20091;-87
2020/12/22 05:54:54;;;;;;;10.70;4.63;;;;;;;12.67;73.97;99914.78;5048717;28;20034;-87
2020/12/22 05:57:23;;;;;;;12.30;5.88;;;;;;;12.61;74.35;99925.00;5032898;28;20112;-87
2020/12/22 05:59:49;;;;;;;11.75;5.65;;;;;;;12.58;73.88;99920.84;5030514;28;20356;-87
2020/12/22 06:02:32;;;;;;;12.98;4.78;;;;;;;12.48;74.05;99930.47;5031501;28;20041;-86
2020/12/22 06:05:00;;;;;;;8.70;5.20;;;;;;;12.50;74.43;99942.53;5032004;28;20483;-86
2020/12/22 06:07:26;;;;;;;11.98;6.60;;;;;;;12.55;74.17;99951.84;5032033;28;20037;-86
2020/12/22 06:09:53;;;;;;;13.48;6.03;;;;;;;12.55;74.48;99949.22;5033074;28;20053;-87
2020/12/22 06:12:20;;;;;;;12.35;6.38;;;;;;;12.46;75.23;99964.81;5031831;28;20049;-86
2020/12/22 06:14:50;;;;;;;8.65;4.85;;;;;;;12.54;74.54;99965.97;5031811;28;20113;-86
2020/12/22 06:17:16;;;;;;;12.90;6.13;;;;;;;12.49;74.89;99976.91;5032288;28;20088;-86
2020/12/22 06:19:43;;;;;;;11.32;5.63;;;;;;;12.42;75.12;99973.94;5033136;28;20464;-86
2020/12/22 06:22:14;;;;;;;10.68;5.55;;;;;;;12.33;75.34;99987.03;5031773;28;20388;-86
2020/12/22 06:24:40;;;;;;;9.48;5.53;;;;;;;12.48;75.25;99993.69;5032839;28;20104;-86
2020/12/22 06:27:11;;;;;;;13.35;5.75;;;;;;;12.58;74.86;99997.22;5030194;28;20032;-86
2020/12/22 06:29:41;;;;;;;12.52;5.90;;;;;;;12.64;74.72;100009.88;5032843;28;20076;-87
2020/12/22 06:32:24;;;;;;;13.43;5.18;;;;;;;12.54;74.50;100010.75;5030968;28;20026;-86
2020/12/22 06:34:50;;;;;;;19.77;7.43;;;;;;;12.13;76.27;100014.97;5019768;28;20586;-87
2020/12/22 06:37:20;;;;;;;12.43;7.18;;;;;;;12.38;75.71;100011.16;5032305;28;20040;-87
2020/12/22 06:39:48;;;;;;;15.18;6.95;;;;;;;12.33;75.87;100016.00;5027767;28;20724;-87
2020/12/22 06:42:28;;;;;;;17.38;6.45;;;;;;;12.38;75.43;100011.16;5023603;28;20442;-87
2020/12/22 06:44:53;;;;;;;15.70;6.95;;;;;;;12.30;75.32;100010.00;5027933;28;20535;-87
2020/12/22 06:47:33;;;;;;;12.43;6.25;;;;;;;12.23;75.57;100014.09;5027918;28;20033;-87
2020/12/22 06:49:59;;;;;;;17.88;7.20;;;;;;;12.14;75.73;100025.34;5032306;28;20029;-87
2020/12/22 06:52:30;;;;;;;17.27;7.70;;;;;;;12.10;75.39;100027.41;5040357;28;20401;-87
2020/12/22 06:54:56;;;;;;;16.17;8.57;;;;;;;12.05;75.97;100034.84;5030623;28;20033;-87
2020/12/22 06:57:47;;;;;;;15.48;8.02;;;;;;;12.20;75.75;100038.00;5047601;28;20551;-87
2020/12/22 07:00:25;;;;;;;18.02;7.93;;;;;;;12.30;75.19;100038.97;5030614;28;20040;-87
2020/12/22 07:03:09;;;;;;;15.38;7.57;;;;;;;12.25;75.38;100040.28;5032188;28;20025;-87
2020/12/22 07:05:42;;;;;;;14.82;7.28;;;;;;;12.33;74.31;100048.41;5031938;28;20041;-87
2020/12/22 07:08:08;;;;;;;15.35;7.10;;;;;;;12.25;74.32;100041.13;5030105;28;20322;-87
2020/12/22 07:10:44;;;;;;;13.27;7.68;;;;;;;12.33;75.02;100044.94;5031183;28;20026;-87
2020/12/22 07:13:12;;;;;;;14.52;7.93;;;;;;;12.34;74.92;100043.97;5047163;28;20112;-87
2020/12/22 07:15:49;;;;;;;13.68;8.20;;;;;;;12.32;74.25;100035.34;5030482;28;20025;-87
2020/12/22 07:18:30;;;;;;;11.43;6.80;;;;;;;12.48;74.09;100035.81;5031802;28;20017;-87
2020/12/22 07:20:58;;;;;;;22.67;8.50;;;;;;;12.32;74.71;100041.44;5030485;28;20017;-87
2020/12/22 07:23:23;;;;;;;12.95;7.20;;;;;;;12.39;74.25;100031.28;5029740;28;20410;-88
2020/12/22 07:25:50;;;;;;;14.90;8.43;;;;;;;12.39;74.80;100047.06;5031200;28;20033;-87
2020/12/22 07:28:16;;;;;;;12.00;7.15;;;;;;;12.40;74.55;100038.19;5047042;28;20099;-87
2020/12/22 07:30:41;;;;;;;11.30;7.82;;;;;;;12.42;73.79;100041.53;5030815;28;20467;-93
2020/12/22 07:33:07;;;;;;;12.50;7.13;;;;;;;12.47;74.28;100049.91;5030990;28;20030;-93
2020/12/22 07:35:33;;;;;;;13.25;9.23;;;;;;;12.25;74.25;100048.19;5030573;28;20029;-88
2020/12/22 07:38:10;;;;;;;18.58;8.20;;;;;;;12.39;73.39;100047.06;5029668;28;20026;-88
2020/12/22 07:40:37;;;;;;;20.50;10.48;;;;;;;12.25;74.62;100054.28;5030141;28;20030;-87
2020/12/22 07:43:08;;;;;;;16.35;9.63;;;;;;;12.33;74.08;100058.09;5029836;28;20025;-87
2020/12/22 07:45:34;;;;;;;17.13;10.50;;;;;;;12.30;74.36;100064.44;5031226;28;20055;-88
2020/12/22 07:48:04;;;;;;;20.85;10.98;;;;;;;12.14;75.07;100078.00;5031373;28;20816;-87
2020/12/22 07:50:29;;;;;;;14.93;9.63;;;;;;;12.28;74.96;100083.00;5031045;28;20033;-87
2020/12/22 07:52:59;;;;;;;15.40;10.80;;;;;;;12.34;74.69;100086.09;5045789;28;20051;-87
2020/12/22 07:55:25;;;;;;;19.98;10.57;;;;;;;12.37;73.54;100096.38;5030810;28;20029;-93
2020/12/22 07:57:52;;;;;;;19.92;11.32;;;;;;;12.44;74.55;100087.88;5030659;28;20083;-93
2020/12/22 08:00:20;;;;;;;16.45;11.43;;;;;;;12.41;74.07;100089.91;5030187;28;20017;-89
2020/12/22 08:02:45;;;;;;;18.35;12.55;;;;;;;12.40;74.72;100086.44;5030167;28;20067;-89
2020/12/22 08:05:13;;;;;;;17.65;11.27;;;;;;;12.50;74.27;100090.00;5031047;28;20553;-89
2020/12/22 08:07:59;;;;;;;18.13;11.68;;;;;;;12.42;74.56;100081.91;5030926;28;20061;-96
2020/12/22 08:10:25;;;;;;;17.92;11.07;;;;;;;12.50;74.30;100073.38;5040394;28;20543;-88
2020/12/22 08:12:56;;;;;;;16.60;11.18;;;;;;;12.45;74.53;100080.81;5031157;28;20109;-88
2020/12/22 08:15:22;;;;;;;;;;;;;;;12.42;74.48;100084.53;5031177;28;20025;-89
2020/12/22 08:17:54;;;;;;;12.00;9.02;;;;;;;12.42;74.42;100089.78;5030651;28;19917;-90
2020/12/22 08:20:20;;;;;;;15.73;10.75;;;;;;;12.39;74.23;100090.03;5028109;28;20025;-90
2020/12/22 08:22:46;;;;;;;17.88;10.90;;;;;;;12.26;74.03;100094.59;5029862;28;20033;-90
2020/12/22 08:25:11;;;;;;;16.65;9.95;;;;;;;12.24;74.16;100092.13;5032607;28;20464;-90
2020/12/22 08:27:37;;;;;;;12.20;8.60;;;;;;;12.18;73.67;100086.47;5038199;28;20029;-90
2020/12/22 08:30:21;;;;;;;13.55;8.65;;;;;;;12.09;73.81;100091.53;5033332;28;20018;-90
2020/12/22 08:32:47;;;;;;;14.27;8.90;;;;;;;12.05;74.70;100098.00;5049721;28;20033;-89
2020/12/22 08:35:14;;;;;;;10.50;8.15;;;;;;;12.08;74.40;100102.16;5032932;28;20453;-89
2020/12/22 08:37:39;;;;;;;10.90;7.22;;;;;;;12.09;74.34;100098.59;5033869;28;20025;-89
2020/12/22 08:40:05;;;;;;;9.35;7.47;;;;;;;12.07;74.15;100105.78;5034046;28;20026;-90
2020/12/22 08:42:31;;;;;;;9.45;7.28;;;;;;;12.04;74.43;100109.47;5034258;28;20034;-90
2020/12/22 08:44:56;;;;;;;10.05;7.85;;;;;;;12.04;74.56;100116.53;5034146;28;20017;-90
2020/12/22 08:47:22;;;;;;;9.85;7.15;;;;;;;12.01;73.77;100124.69;5032461;28;20164;-89
2020/12/22 08:49:48;;;;;;;12.48;8.88;;;;;;;12.08;74.57;100131.97;5038857;28;20025;-93
2020/12/22 08:52:18;;;;;;;15.00;8.57;;;;;;;12.12;74.94;100124.66;5027913;28;20029;-91
2020/12/22 08:54:45;;;;;;;13.38;9.43;;;;;;;12.13;73.91;100139.50;5033486;28;20029;-89
2020/12/22 08:57:23;;;;;;;10.90;8.50;;;;;;;12.18;74.22;100150.47;5033850;28;20035;-87
2020/12/22 08:59:48;;;;;;;13.25;8.77;;;;;;;12.08;73.93;100144.28;5033278;28;20028;-90
2020/12/22 09:02:30;;;;;;;18.83;9.55;;;;;;;12.09;73.96;100152.06;5048652;28;20033;-93
2020/12/22 09:04:55;;;;;;;11.63;8.93;;;;;;;12.19;75.01;100173.22;5031789;28;20083;-94
2020/12/22 09:07:25;;;;;;;11.88;8.80;;;;;;;12.32;74.45;100188.06;5024746;28;20479;-93
2020/12/22 09:09:51;;;;;;;12.50;9.43;;;;;;;12.40;74.39;100189.13;5033794;28;20092;-93
2020/12/22 09:12:16;;;;;;;14.13;10.23;;;;;;;12.48;74.54;100185.91;5032483;28;20053;-93
2020/12/22 09:14:46;;;;;;;16.33;11.50;;;;;;;12.54;73.94;100177.50;5032643;28;20384;-94
2020/12/22 09:17:13;;;;;;;19.40;12.48;;;;;;;12.64;74.05;100178.44;5031585;28;20029;-89
2020/12/22 09:19:49;;;;;;;17.58;13.48;;;;;;;12.65;73.88;100176.63;5033731;28;20036;-89
2020/12/22 09:22:21;;;;;;;23.38;15.05;;;;;;;12.61;74.18;100178.66;5032229;28;20056;-89
2020/12/22 09:24:54;;;;;;;19.52;14.38;;;;;;;12.65;73.95;100176.63;5031313;28;20025;-88
2020/12/22 09:27:39;;;;;;;20.13;14.73;;;;;;;12.65;73.65;100187.16;5036129;28;20392;-93
2020/12/22 09:30:15;;;;;;;19.15;13.02;;;;;;;12.78;73.31;100200.22;5039273;28;20025;-93
2020/12/22 09:32:43;;;;;;;24.92;13.85;;;;;;;12.81;73.15;100205.22;5032096;28;20045;-91
2020/12/22 09:35:08;;;;;;;22.17;14.25;;;;;;;12.77;73.42;100204.63;5031933;28;20464;-90
2020/12/22 09:37:34;;;;;;;26.33;15.15;;;;;;;12.76;72.46;100213.50;5033625;28;20025;-92
2020/12/22 09:39:59;;;;;;;20.08;14.95;;;;;;;12.73;73.39;100202.38;5049123;28;20083;-93
2020/12/22 09:42:27;;;;;;;19.17;12.52;;;;;;;12.77;73.13;100209.06;5021790;28;20106;-92
2020/12/22 09:44:52;;;;;;;20.80;13.05;;;;;;;12.89;72.84;100206.28;5013057;28;20071;-88
2020/12/22 09:47:18;;;;;;;23.00;13.93;;;;;;;12.99;71.88;100203.72;5030842;28;20104;-88
2020/12/22 09:49:43;;;;;;;23.67;14.40;;;;;;;12.93;72.05;100213.94;5047770;28;20033;-89
2020/12/22 09:52:09;;;;;;;16.40;12.90;;;;;;;12.97;71.65;100218.00;5032542;28;20025;-89
2020/12/22 09:54:35;;;;;;;17.17;12.55;;;;;;;12.83;71.73;100227.84;5031817;28;20037;-88
2020/12/22 09:57:00;;;;;;;19.85;12.70;;;;;;;12.85;71.98;100227.72;5049098;28;20029;-90
2020/12/22 09:59:26;;;;;;;14.65;10.82;;;;;;;12.99;72.32;100223.97;5045574;28;20357;-92
2020/12/22 10:01:52;;;;;;;15.35;10.43;;;;;;;13.07;71.63;100227.69;5032061;28;20022;-90
2020/12/22 10:04:17;;;;;;;13.90;10.60;;;;;;;13.14;71.40;100214.81;5031474;28;20729;-90
2020/12/22 10:06:43;;;;;;;16.50;10.52;;;;;;;13.24;71.76;100228.91;5031012;28;20590;-92
2020/12/22 10:09:08;;;;;;;18.40;11.55;;;;;;;13.15;71.49;100237.59;5031358;28;20025;-91
2020/12/22 10:11:35;;;;;;;19.33;11.82;;;;;;;13.18;71.31;100228.59;5033162;28;20108;-92
2020/12/22 10:14:05;;;;;;;16.77;11.07;;;;;;;13.36;70.81;100219.19;5031746;28;20022;-92
2020/12/22 10:16:31;;;;;;;16.13;9.25;;;;;;;13.47;71.49;100219.16;5027537;28;20025;-91
2020/12/22 10:18:57;;;;;;;23.00;10.90;;;;;;;13.47;70.67;100218.31;5031251;28;20071;-92
2020/12/22 10:21:23;;;;;;;15.20;11.52;;;;;;;13.51;70.44;100218.88;5030328;28;20038;-91
2020/12/22 10:23:51;;;;;;;13.23;9.60;;;;;;;13.60;69.88;100218.13;5032716;28;20488;-92
2020/12/22 10:26:19;;;;;;;11.95;8.75;;;;;;;13.55;69.60;100220.31;5032668;28;20067;-92
2020/12/22 10:28:45;;;;;;;11.57;8.50;;;;;;;13.65;70.57;100210.66;5031000;28;20032;-91
2020/12/22 10:31:16;;;;;;;11.57;7.57;;;;;;;13.79;69.43;100202.41;5031070;28;20025;-93
2020/12/22 10:33:42;;;;;;;14.73;9.02;;;;;;;13.86;68.94;100203.59;5030937;28;20026;-93
2020/12/22 10:36:11;;;;;;;9.98;8.45;;;;;;;13.96;69.94;100200.13;5040722;28;20041;-94
2020/12/22 10:38:36;;;;;;;10.75;7.82;;;;;;;14.00;69.48;100194.47;5023230;28;20427;-93
2020/12/22 10:41:02;;;;;;;9.98;6.93;;;;;;;14.13;69.62;100206.63;5034069;28;20030;-96
2020/12/22 10:43:40;;;;;;;9.95;6.75;;;;;;;14.08;69.31;100210.50;5028651;28;20056;-96
2020/12/22 10:46:05;;;;;;;8.98;5.70;;;;;;;14.14;68.74;100200.34;5033488;28;20033;-96
2020/12/22 10:48:31;;;;;;;10.98;6.18;;;;;;;14.02;67.83;100187.28;5048122;28;20387;-96
2020/12/22 10:50:57;;;;;;;8.32;5.97;;;;;;;14.21;68.02;100204.97;5029101;28;20021;-93
2020/12/22 10:53:22;;;;;;;18.23;6.28;;;;;;;14.22;66.80;100208.47;5042420;28;20032;-95
2020/12/22 10:55:48;;;;;;;6.22;5.47;;;;;;;14.17;67.27;100210.66;5028878;28;20026;-94
2020/12/22 10:58:13;;;;;;;6.72;6.03;;;;;;;14.10;66.86;100215.66;5028533;28;20036;-92
2020/12/22 11:00:39;;;;;;;10.68;5.32;;;;;;;14.05;65.53;100228.41;5028257;28;20033;-94
2020/12/22 11:03:07;;;;;;;10.55;5.40;;;;;;;14.02;67.46;100228.66;5031599;28;20454;-93
2020/12/22 11:08:19;;;;;;;6.78;5.63;;;;;;;14.06;68.12;100241.47;5030799;28;20563;-89
2020/12/22 11:10:44;;;;;;;8.38;5.80;;;;;;;13.98;68.29;100251.00;5030786;28;20503;-90
2020/12/22 11:13:10;;;;;;;12.43;6.20;;;;;;;13.87;68.96;100252.75;5031624;28;20029;-90
2020/12/22 11:15:35;;;;;;;13.55;6.57;;;;;;;13.98;67.98;100241.28;5029297;28;20124;-89
2020/12/22 11:18:00;;;;;;;8.70;6.05;;;;;;;14.22;67.27;100246.28;5029789;28;20467;-89
2020/12/22 11:20:26;;;;;;;7.13;5.20;;;;;;;14.33;68.06;100247.16;5031348;28;20040;-90
2020/12/22 11:22:51;;;;;;;10.32;5.90;;;;;;;14.19;67.60;100229.84;5030204;28;20037;-89
2020/12/22 11:25:18;;;;;;;11.00;5.78;;;;;;;14.21;67.13;100223.47;5030647;28;20030;-89
2020/12/22 11:27:45;;;;;;;10.85;5.30;;;;;;;14.35;67.02;100229.38;5030139;28;20026;-91